createdAt,value
2022-10-11T00:00:43.867Z,23.50
2022-10-11T00:03:28.406Z,23.50
2022-10-11T00:06:13.873Z,23.50
2022-10-11T00:08:55.440Z,23.60
2022-10-11T00:11:40.205Z,23.60
2022-10-11T00:14:21.540Z,23.60
2022-10-11T00:17:04.543Z,23.60
2022-10-11T00:19:47.937Z,23.60
2022-10-11T00:22:30.401Z,23.60
2022-10-11T00:25:13.727Z,23.60
2022-10-11T00:27:58.576Z,23.70
2022-10-11T00:30:45.059Z,23.60
2022-10-11T00:33:29.229Z,23.60
2022-10-11T00:36:15.840Z,23.70
2022-10-11T00:38:55.335Z,23.70
2022-10-11T00:41:40.035Z,23.60
2022-10-11T00:44:24.159Z,23.70
2022-10-11T00:47:10.541Z,23.70
2022-10-11T00:50:00.944Z,23.70
2022-10-11T00:52:45.518Z,23.70
2022-10-11T00:55:32.514Z,23.70
2022-10-11T00:58:17.097Z,23.70
2022-10-11T01:01:01.685Z,23.70
2022-10-11T01:03:44.224Z,23.80
2022-10-11T01:06:27.298Z,23.80
2022-10-11T01:09:10.921Z,23.80
2022-10-11T01:11:56.734Z,23.80
2022-10-11T01:14:55.155Z,23.80
2022-10-11T01:17:48.319Z,23.80
2022-10-11T01:20:47.570Z,23.90
2022-10-11T01:23:57.568Z,23.90
2022-10-11T01:27:27.185Z,24.00
2022-10-11T01:30:36.101Z,24.00
2022-10-11T01:33:26.216Z,24.00
2022-10-11T01:36:28.928Z,24.00
2022-10-11T01:39:21.535Z,24.00
2022-10-11T01:42:05.427Z,23.30
2022-10-11T01:44:48.562Z,22.80
2022-10-11T01:47:32.053Z,22.70
2022-10-11T01:50:39.341Z,22.60
2022-10-11T01:53:30.848Z,22.50
2022-10-11T01:56:45.112Z,22.60
2022-10-11T01:59:49.059Z,22.60
2022-10-11T02:02:59.225Z,22.40
2022-10-11T02:05:54.401Z,22.40
2022-10-11T02:09:05.741Z,22.70
2022-10-11T02:11:51.378Z,23.00
2022-10-11T02:14:38.991Z,23.20
2022-10-11T02:17:26.955Z,23.30
2022-10-11T02:20:13.364Z,23.50
2022-10-11T02:23:01.029Z,23.50
2022-10-11T02:25:43.514Z,23.50
2022-10-11T02:28:27.000Z,23.70
2022-10-11T02:31:09.439Z,23.80
2022-10-11T02:33:58.432Z,23.70
2022-10-11T02:36:57.348Z,23.80
2022-10-11T02:39:48.466Z,23.60
2022-10-11T02:42:35.287Z,23.60
2022-10-11T02:45:28.159Z,23.80
2022-10-11T02:48:13.320Z,23.80
2022-10-11T02:50:59.169Z,23.80
2022-10-11T02:53:41.457Z,23.80
2022-10-11T05:13:11.685Z,24.00
2022-10-11T05:16:10.939Z,23.70
2022-10-11T05:18:55.985Z,23.80
2022-10-11T05:21:41.336Z,23.80
2022-10-11T05:24:24.297Z,23.90
2022-10-11T05:27:08.916Z,24.00
2022-10-11T05:29:51.315Z,24.00
2022-10-11T05:32:37.741Z,24.00
2022-10-11T05:35:22.518Z,23.90
2022-10-11T05:38:06.917Z,23.80
2022-10-11T05:40:47.928Z,23.70
2022-10-11T05:43:33.417Z,23.80
2022-10-11T05:46:17.676Z,23.90
2022-10-11T05:49:02.054Z,23.80
2022-10-11T05:51:46.959Z,23.70
2022-10-11T05:54:32.783Z,23.60
2022-10-11T05:57:17.788Z,23.50
2022-10-11T06:00:00.521Z,23.50
2022-10-11T06:02:43.645Z,23.50
2022-10-11T06:05:28.860Z,23.50
2022-10-11T06:08:11.951Z,23.50
2022-10-11T06:10:53.936Z,23.70
2022-10-11T06:13:42.021Z,23.70
2022-10-11T06:16:40.355Z,23.50
2022-10-11T06:19:34.202Z,23.70
2022-10-11T06:22:34.333Z,23.80
2022-10-11T06:25:30.187Z,23.90
2022-10-11T06:28:30.674Z,23.90
2022-10-11T06:31:38.584Z,23.90
2022-10-11T06:34:33.196Z,24.00
2022-10-11T06:37:33.852Z,24.00
2022-10-11T06:40:49.875Z,24.00
2022-10-11T06:43:53.184Z,24.00
2022-10-11T06:46:50.444Z,24.10
2022-10-11T06:49:51.599Z,24.20
2022-10-11T06:52:32.673Z,24.10
2022-10-11T06:55:29.794Z,24.10
2022-10-11T06:58:29.551Z,24.10
2022-10-11T07:01:29.716Z,24.20
2022-10-11T07:04:11.656Z,24.20
2022-10-11T07:07:13.313Z,24.20
2022-10-11T07:10:14.576Z,24.20
2022-10-11T07:13:17.015Z,24.10
2022-10-11T07:16:19.134Z,24.20
2022-10-11T07:19:24.034Z,24.20
2022-10-11T07:22:27.863Z,24.10
2022-10-11T07:25:38.224Z,24.10
2022-10-11T07:28:38.536Z,24.10
2022-10-11T07:31:41.334Z,24.20
2022-10-11T07:34:44.830Z,24.20
2022-10-11T07:37:42.325Z,24.20
2022-10-11T07:40:44.445Z,24.20
2022-10-11T07:43:39.870Z,24.20
2022-10-11T07:46:37.559Z,24.20
2022-10-11T07:49:33.835Z,24.10
2022-10-11T07:52:33.189Z,24.10
2022-10-11T08:14:59.920Z,24.00
2022-10-11T08:34:05.609Z,24.10
2022-10-11T08:45:51.538Z,24.00
2022-10-11T08:58:01.140Z,23.90
2022-10-11T09:26:25.544Z,23.70
2022-10-11T09:35:18.595Z,23.40
2022-10-11T09:38:02.858Z,23.10
2022-10-11T09:41:06.010Z,23.00
2022-10-11T09:46:51.452Z,23.00
2022-10-11T09:49:25.405Z,23.00
2022-10-11T09:52:00.192Z,23.10
2022-10-11T09:58:36.321Z,23.50
2022-10-11T10:04:25.307Z,23.70
2022-10-11T10:09:58.585Z,23.80
2022-10-11T10:13:02.498Z,23.80
2022-10-11T10:15:42.431Z,23.80
2022-10-11T10:18:15.574Z,23.80
2022-10-11T10:20:46.937Z,23.80
2022-10-11T10:23:37.709Z,23.80
2022-10-11T10:26:15.739Z,23.80
2022-10-11T10:29:16.404Z,23.80
2022-10-11T10:35:10.734Z,23.80
2022-10-11T10:37:45.976Z,23.80
2022-10-11T10:40:21.258Z,23.80
2022-10-11T10:43:36.621Z,23.80
2022-10-11T10:46:44.796Z,23.80
2022-10-11T10:51:09.731Z,23.80
2022-10-11T10:53:46.636Z,23.80
2022-10-11T10:56:42.458Z,23.80
2022-10-11T10:59:36.076Z,23.80
2022-10-11T11:06:57.033Z,23.80
2022-10-11T11:09:31.982Z,23.90
2022-10-11T11:12:20.376Z,23.80
2022-10-11T11:14:59.785Z,23.80
2022-10-11T11:17:44.296Z,23.80
2022-10-11T11:20:21.947Z,23.80
2022-10-11T11:23:09.400Z,23.80
2022-10-11T11:25:45.137Z,23.80
2022-10-11T11:28:37.036Z,23.80
2022-10-11T11:31:53.168Z,23.80
2022-10-11T11:34:29.278Z,23.80
2022-10-11T11:37:28.810Z,23.80
2022-10-11T11:40:07.910Z,23.80
2022-10-11T11:42:50.913Z,23.80
2022-10-11T11:45:24.490Z,23.80
2022-10-11T11:47:58.473Z,23.90
2022-10-11T11:50:30.491Z,23.90
2022-10-11T11:53:06.542Z,23.80
2022-10-11T11:55:36.877Z,23.80
2022-10-11T11:58:10.287Z,23.90
2022-10-11T12:00:44.924Z,23.90
2022-10-11T12:03:18.250Z,23.90
2022-10-11T12:06:17.180Z,23.90
2022-10-11T12:08:52.623Z,23.90
2022-10-11T12:11:35.359Z,23.90
2022-10-11T12:14:31.269Z,23.90
2022-10-11T12:17:10.682Z,23.90
2022-10-11T12:19:42.324Z,23.90
2022-10-11T12:22:31.061Z,23.90
2022-10-11T12:25:03.320Z,23.90
2022-10-11T12:27:48.960Z,23.80
2022-10-11T12:30:49.059Z,23.90
2022-10-11T12:33:32.463Z,23.90
2022-10-11T12:36:07.494Z,23.90
2022-10-11T12:38:42.505Z,23.80
2022-10-11T12:41:15.718Z,23.80
2022-10-11T12:43:51.810Z,23.80
2022-10-11T12:46:32.267Z,23.80
2022-10-11T12:49:41.203Z,23.80
2022-10-11T12:52:26.526Z,23.80
2022-10-11T12:55:30.518Z,23.80
2022-10-11T12:58:27.258Z,23.80
2022-10-11T13:00:57.490Z,23.80
2022-10-11T13:03:32.321Z,23.90
2022-10-11T13:06:21.630Z,23.80
2022-10-11T13:08:56.101Z,23.80
2022-10-11T13:11:34.644Z,23.80
2022-10-11T13:14:13.096Z,23.80
2022-10-11T13:17:23.215Z,23.80
2022-10-11T13:20:12.358Z,23.80
2022-10-11T13:22:42.884Z,23.80
2022-10-11T13:25:16.628Z,23.80
2022-10-11T13:27:52.979Z,23.80
2022-10-11T13:30:28.603Z,23.80
2022-10-11T13:32:59.263Z,23.80
2022-10-11T13:35:40.409Z,23.80
2022-10-11T13:38:16.797Z,23.80
2022-10-11T13:40:52.755Z,23.80
2022-10-11T13:43:24.453Z,23.80
2022-10-11T13:45:55.513Z,23.80
2022-10-11T13:48:30.768Z,23.80
2022-10-11T13:51:36.244Z,23.80
2022-10-11T13:54:11.719Z,23.80
2022-10-11T13:56:49.608Z,23.80
2022-10-11T13:59:26.357Z,23.80
2022-10-11T14:02:02.981Z,23.80
2022-10-11T14:04:41.169Z,23.80
2022-10-11T14:07:27.317Z,23.70
2022-10-11T14:09:57.606Z,23.80
2022-10-11T14:12:42.040Z,23.80
2022-10-11T14:15:34.932Z,23.80
2022-10-11T14:18:24.144Z,23.80
2022-10-11T14:20:54.905Z,23.80
2022-10-11T14:23:24.983Z,23.80
2022-10-11T14:26:07.857Z,23.80
2022-10-11T14:28:38.489Z,23.80
2022-10-11T14:31:11.669Z,23.80
2022-10-11T14:33:41.744Z,23.80
2022-10-11T14:36:11.669Z,23.80
2022-10-11T14:38:44.521Z,23.80
2022-10-11T14:41:14.782Z,23.80
2022-10-11T14:43:50.841Z,23.80
2022-10-11T14:46:26.521Z,23.80
2022-10-11T14:48:56.903Z,23.80
2022-10-11T14:51:29.256Z,23.80
2022-10-11T14:53:59.360Z,23.80
2022-10-11T14:56:29.520Z,23.80
2022-10-11T14:59:11.884Z,23.80
2022-10-11T15:01:42.987Z,23.80
2022-10-11T15:04:13.771Z,23.80
2022-10-11T15:06:44.046Z,23.80
2022-10-11T15:09:14.086Z,23.80
2022-10-11T15:11:44.127Z,23.80
2022-10-11T15:14:14.053Z,23.80
2022-10-11T15:16:47.042Z,23.80
2022-10-11T15:19:22.194Z,23.80
2022-10-11T15:21:52.938Z,23.80
2022-10-11T15:24:23.295Z,23.90
2022-10-11T15:26:56.240Z,23.80
2022-10-11T15:29:26.654Z,23.80
2022-10-11T15:32:03.121Z,23.80
2022-10-11T15:34:33.177Z,23.80
2022-10-11T15:37:09.005Z,23.80
2022-10-11T15:39:39.240Z,23.80
2022-10-11T15:42:12.263Z,23.80
2022-10-11T15:44:43.941Z,23.80
2022-10-11T15:47:14.087Z,23.80
2022-10-11T15:49:50.384Z,23.80
2022-10-11T15:52:20.672Z,23.80
2022-10-11T15:54:50.652Z,23.80
2022-10-11T15:57:20.724Z,23.80
2022-10-11T15:59:50.650Z,23.80
2022-10-11T16:02:26.595Z,23.80
2022-10-11T16:04:56.826Z,23.80
2022-10-11T16:07:26.848Z,23.80
2022-10-11T16:09:56.863Z,23.80
2022-10-11T16:12:26.889Z,23.80
2022-10-11T16:14:56.855Z,23.80
2022-10-11T16:17:26.865Z,23.80
2022-10-11T16:19:58.669Z,23.80
2022-10-11T16:22:29.245Z,23.80
2022-10-11T16:25:03.725Z,23.80
2022-10-11T16:27:34.136Z,23.80
2022-10-11T16:30:10.307Z,23.80
2022-10-11T16:32:47.252Z,23.80
2022-10-11T16:35:17.800Z,23.80
2022-10-11T16:37:47.902Z,23.80
2022-10-11T16:40:18.892Z,23.80
2022-10-11T16:42:49.419Z,23.80
2022-10-11T16:45:31.943Z,23.80
2022-10-11T16:48:02.227Z,23.80
2022-10-11T16:50:36.835Z,23.80
2022-10-11T16:53:09.450Z,23.80
2022-10-11T16:55:41.531Z,23.80
2022-10-11T16:58:12.329Z,23.80
2022-10-11T17:00:44.370Z,23.80
2022-10-11T17:03:14.758Z,23.80
2022-10-11T17:05:46.818Z,23.80
2022-10-11T17:08:17.040Z,23.80
2022-10-11T17:10:48.728Z,23.80
2022-10-11T17:13:19.050Z,23.90
2022-10-11T17:15:49.491Z,23.80
2022-10-11T17:18:20.335Z,23.80
2022-10-11T17:20:50.942Z,23.80
2022-10-11T17:23:21.193Z,23.80
2022-10-11T17:25:57.000Z,23.80
2022-10-11T17:28:27.800Z,23.80
2022-10-11T17:30:58.490Z,23.80
2022-10-11T17:33:28.686Z,23.80
2022-10-11T17:35:59.590Z,23.80
2022-10-11T17:38:32.625Z,23.80
2022-10-11T17:41:06.655Z,23.80
2022-10-11T17:43:40.843Z,23.80
2022-10-11T17:46:12.084Z,23.80
2022-10-11T17:48:43.511Z,23.80
2022-10-11T17:51:18.686Z,23.80
2022-10-11T17:53:49.357Z,23.90
2022-10-11T17:56:28.784Z,23.80
2022-10-11T17:59:00.646Z,23.80
2022-10-11T18:01:32.473Z,23.80
2022-10-11T18:04:10.511Z,23.80
2022-10-11T18:06:41.369Z,23.80
2022-10-11T18:09:11.598Z,23.80
2022-10-11T18:11:41.802Z,23.80
2022-10-11T18:14:11.872Z,23.80
2022-10-11T18:16:42.625Z,23.80
2022-10-11T18:19:13.817Z,23.80
2022-10-11T18:21:44.471Z,23.80
2022-10-11T18:24:16.860Z,23.80
2022-10-11T18:26:47.317Z,23.80
2022-10-11T18:29:19.700Z,23.80
2022-10-11T18:31:50.898Z,23.80
2022-10-11T18:34:21.335Z,23.80
2022-10-11T18:36:51.462Z,23.80
2022-10-11T18:39:23.033Z,23.80
2022-10-11T18:41:56.457Z,23.80
2022-10-11T18:44:26.618Z,23.80
2022-10-11T18:46:56.583Z,23.80
2022-10-11T18:49:26.860Z,23.80
2022-10-11T18:52:02.832Z,23.80
2022-10-11T18:54:33.181Z,23.80
2022-10-11T18:57:09.509Z,23.80
2022-10-11T18:59:39.739Z,23.80
2022-10-11T19:02:18.026Z,23.80
2022-10-11T19:04:53.735Z,23.80
2022-10-11T19:07:24.284Z,23.80
2022-10-11T19:09:54.368Z,23.80
2022-10-11T19:12:27.252Z,23.80
2022-10-11T19:14:58.228Z,23.90
2022-10-11T19:17:34.225Z,23.80
2022-10-11T19:20:04.442Z,23.90
2022-10-11T19:22:34.848Z,23.90
2022-10-11T19:25:09.245Z,23.80
2022-10-11T19:27:39.459Z,23.90
2022-10-11T19:30:12.953Z,23.80
2022-10-11T19:32:43.047Z,23.80
2022-10-11T19:35:15.310Z,23.80
2022-10-11T19:37:49.209Z,23.90
2022-10-11T19:40:19.248Z,23.80
2022-10-11T19:42:49.506Z,23.80
2022-10-11T19:45:19.860Z,23.80
2022-10-11T19:47:50.931Z,23.80
2022-10-11T19:50:21.275Z,23.80
2022-10-11T19:52:51.546Z,23.80
2022-10-11T19:55:21.529Z,23.80
2022-10-11T19:58:08.166Z,23.80
2022-10-11T20:00:38.580Z,23.80
2022-10-11T20:03:08.602Z,23.80
2022-10-11T20:05:39.352Z,23.80
2022-10-11T20:08:12.083Z,23.80
2022-10-11T20:10:42.551Z,23.80
2022-10-11T20:13:13.238Z,23.80
2022-10-11T20:15:43.536Z,23.80
2022-10-11T20:18:13.795Z,23.80
2022-10-11T20:20:53.804Z,23.80
2022-10-11T20:23:27.551Z,23.80
2022-10-11T20:26:11.544Z,23.80
2022-10-11T20:28:42.352Z,23.80
2022-10-11T20:31:17.925Z,23.90
2022-10-11T20:33:48.554Z,23.80
2022-10-11T20:36:20.522Z,23.80
2022-10-11T20:38:51.445Z,23.80
2022-10-11T20:41:28.649Z,23.80
2022-10-11T20:44:03.531Z,23.80
2022-10-11T20:46:41.035Z,23.80
2022-10-11T20:49:14.423Z,23.80
2022-10-11T20:51:44.990Z,23.80
2022-10-11T20:54:27.460Z,23.80
2022-10-11T20:56:58.839Z,23.80
2022-10-11T20:59:31.375Z,23.80
2022-10-11T21:02:01.675Z,23.80
2022-10-11T21:04:31.896Z,23.80
2022-10-11T21:07:02.102Z,23.80
2022-10-11T21:09:32.042Z,23.80
2022-10-11T21:12:05.349Z,23.80
2022-10-11T21:14:35.459Z,23.80
2022-10-11T21:17:05.386Z,23.80
2022-10-11T21:19:35.382Z,23.80
2022-10-11T21:22:05.494Z,23.80
2022-10-11T21:24:35.824Z,23.80
2022-10-11T21:27:06.125Z,23.80
2022-10-11T21:29:42.036Z,23.80
2022-10-11T21:32:14.362Z,23.80
2022-10-11T21:34:47.819Z,23.90
2022-10-11T21:37:18.153Z,23.80
2022-10-11T21:39:54.131Z,23.80
2022-10-11T21:42:33.392Z,23.80
2022-10-11T21:45:07.417Z,23.80
2022-10-11T21:47:39.230Z,23.80
2022-10-11T21:50:10.079Z,23.80
2022-10-11T21:52:46.215Z,23.80
2022-10-11T21:55:16.484Z,23.80
2022-10-11T21:57:46.525Z,23.80
2022-10-11T22:00:16.485Z,23.80
2022-10-11T22:02:47.566Z,23.90
2022-10-11T22:05:20.844Z,23.80
2022-10-11T22:07:50.974Z,23.80
2022-10-11T22:10:21.140Z,23.80
2022-10-11T22:12:51.415Z,23.80
2022-10-11T22:15:21.471Z,23.80
2022-10-11T22:17:51.474Z,23.80
2022-10-11T22:20:21.878Z,23.80
2022-10-11T22:22:52.121Z,23.80
2022-10-11T22:25:22.888Z,23.80
2022-10-11T22:27:52.960Z,23.80
2022-10-11T22:30:28.733Z,23.80
2022-10-11T22:32:58.435Z,23.80
2022-10-11T22:35:29.730Z,23.80
2022-10-11T22:38:01.625Z,23.80
2022-10-11T22:40:31.788Z,23.80
2022-10-11T22:43:02.035Z,23.80
2022-10-11T22:45:32.180Z,23.70
2022-10-11T22:48:05.039Z,23.70
2022-10-11T22:50:35.173Z,23.80
2022-10-11T22:53:07.172Z,23.80
2022-10-11T22:55:39.543Z,23.70
2022-10-11T22:58:10.188Z,23.70
2022-10-11T23:00:42.575Z,23.70
2022-10-11T23:03:16.378Z,23.70
2022-10-11T23:05:54.966Z,23.70
2022-10-11T23:08:28.439Z,23.70
2022-10-11T23:11:01.038Z,23.70
2022-10-11T23:13:43.602Z,23.70
2022-10-11T23:16:15.528Z,23.80
2022-10-11T23:18:45.906Z,23.70
2022-10-11T23:21:16.001Z,23.80
2022-10-11T23:23:46.822Z,23.70
2022-10-11T23:26:18.290Z,23.70
2022-10-11T23:28:48.536Z,23.80
2022-10-11T23:31:19.713Z,23.70
2022-10-11T23:33:49.998Z,23.80
2022-10-11T23:36:25.356Z,23.80
2022-10-11T23:38:57.350Z,23.80
2022-10-11T23:41:29.156Z,23.80
2022-10-11T23:43:59.897Z,23.80
2022-10-11T23:46:30.774Z,23.80
2022-10-11T23:49:00.798Z,23.80
2022-10-11T23:51:31.119Z,23.80
2022-10-11T23:54:01.224Z,23.80
2022-10-11T23:56:31.293Z,23.90
2022-10-11T23:59:01.218Z,23.90
